createdAt,value
2018-04-18T00:01:41.460Z,11.90
2018-04-18T00:04:07.851Z,11.80
2018-04-18T00:06:34.194Z,11.80
2018-04-18T00:09:00.563Z,11.70
2018-04-18T00:11:26.941Z,11.50
2018-04-18T00:13:53.319Z,11.40
2018-04-18T00:16:19.697Z,11.40
2018-04-18T00:18:46.064Z,11.50
2018-04-18T00:21:12.433Z,11.50
2018-04-18T00:23:38.825Z,11.60
2018-04-18T00:26:05.196Z,11.50
2018-04-18T00:28:31.582Z,11.50
2018-04-18T00:30:58.711Z,11.40
2018-04-18T00:33:25.059Z,11.40
2018-04-18T00:35:52.180Z,11.20
2018-04-18T00:38:18.583Z,11.20
2018-04-18T00:40:45.020Z,11.20
2018-04-18T00:43:11.399Z,11.20
2018-04-18T00:45:37.787Z,11.30
2018-04-18T00:48:04.319Z,11.20
2018-04-18T00:50:30.701Z,11.20
2018-04-18T00:52:57.084Z,11.10
2018-04-18T00:55:23.443Z,11.10
2018-04-18T00:57:49.817Z,11.00
2018-04-18T01:00:16.940Z,11.00
2018-04-18T01:02:43.298Z,10.90
2018-04-18T01:05:10.424Z,11.00
2018-04-18T01:07:36.840Z,11.00
2018-04-18T01:10:03.222Z,10.80
2018-04-18T01:12:29.578Z,10.80
2018-04-18T01:14:56.010Z,10.80
2018-04-18T01:17:22.394Z,10.70
2018-04-18T01:19:48.783Z,10.60
2018-04-18T01:22:15.202Z,10.60
2018-04-18T01:24:41.580Z,10.70
2018-04-18T01:27:07.936Z,10.70
2018-04-18T01:29:35.116Z,10.60
2018-04-18T01:32:01.457Z,10.60
2018-04-18T01:34:27.847Z,10.60
2018-04-18T01:36:55.004Z,10.60
2018-04-18T01:39:22.158Z,10.60
2018-04-18T01:41:49.299Z,10.70
2018-04-18T01:44:16.472Z,10.60
2018-04-18T01:46:42.844Z,10.50
2018-04-18T01:49:20.228Z,10.60
2018-04-18T01:51:46.614Z,10.60
2018-04-18T01:54:13.014Z,10.50
2018-04-18T01:56:39.411Z,10.40
2018-04-18T01:59:05.780Z,10.40
2018-04-18T02:01:32.154Z,10.40
2018-04-18T02:03:58.503Z,10.40
2018-04-18T02:06:24.868Z,10.30
2018-04-18T02:08:51.268Z,10.20
2018-04-18T02:11:17.647Z,10.30
2018-04-18T02:13:44.032Z,10.30
2018-04-18T02:16:10.883Z,10.30
2018-04-18T02:18:37.275Z,10.20
2018-04-18T02:21:04.394Z,10.10
2018-04-18T02:23:30.773Z,10.00
2018-04-18T02:25:57.179Z,10.00
2018-04-18T02:28:24.337Z,10.00
2018-04-18T02:30:50.749Z,10.00
2018-04-18T02:33:17.895Z,10.00
2018-04-18T02:35:44.311Z,10.00
2018-04-18T02:38:10.668Z,9.90
2018-04-18T02:40:37.050Z,9.90
2018-04-18T02:43:04.555Z,9.90
2018-04-18T02:45:37.902Z,9.90
2018-04-18T02:48:04.436Z,9.90
2018-04-18T02:50:30.854Z,9.80
2018-04-18T02:52:57.247Z,9.70
2018-04-18T02:55:23.616Z,9.70
2018-04-18T02:57:50.017Z,9.60
2018-04-18T03:00:16.408Z,9.70
2018-04-18T03:02:42.774Z,9.70
2018-04-18T03:05:09.180Z,9.70
2018-04-18T03:07:35.578Z,9.70
2018-04-18T03:10:01.964Z,9.80
2018-04-18T03:12:28.341Z,9.70
2018-04-18T03:14:55.511Z,9.60
2018-04-18T03:17:21.871Z,9.60
2018-04-18T03:19:48.263Z,9.50
2018-04-18T03:22:14.635Z,9.60
2018-04-18T03:24:40.997Z,9.60
2018-04-18T03:27:07.369Z,9.60
2018-04-18T03:29:33.741Z,9.60
2018-04-18T03:32:00.095Z,9.60
2018-04-18T03:34:27.221Z,9.50
2018-04-18T03:36:53.634Z,9.50
2018-04-18T03:39:20.020Z,9.50
2018-04-18T03:41:47.151Z,9.50
2018-04-18T03:44:13.571Z,9.40
2018-04-18T03:46:39.960Z,9.40
2018-04-18T03:49:06.355Z,9.40
2018-04-18T03:51:32.689Z,9.40
2018-04-18T03:53:59.056Z,9.40
2018-04-18T03:56:25.414Z,9.30
2018-04-18T03:58:51.767Z,9.40
2018-04-18T04:01:18.113Z,9.40
2018-04-18T04:03:44.532Z,9.30
2018-04-18T04:06:10.887Z,9.30
2018-04-18T04:08:37.247Z,9.30
2018-04-18T04:11:04.358Z,9.20
2018-04-18T04:13:30.760Z,9.20
2018-04-18T04:15:57.152Z,9.20
2018-04-18T04:18:36.360Z,9.10
2018-04-18T04:24:15.777Z,9.10
2018-04-18T04:26:42.142Z,9.10
2018-04-18T04:29:08.502Z,9.10
2018-04-18T04:31:35.668Z,9.00
2018-04-18T04:34:02.094Z,9.00
2018-04-18T04:36:28.451Z,9.00
2018-04-18T04:38:54.856Z,9.10
2018-04-18T04:41:21.978Z,9.10
2018-04-18T04:43:48.348Z,9.10
2018-04-18T04:46:14.737Z,9.10
2018-04-18T04:48:41.096Z,9.00
2018-04-18T04:51:07.472Z,9.00
2018-04-18T04:53:33.903Z,9.10
2018-04-18T04:56:00.264Z,9.20
2018-04-18T04:58:26.663Z,9.20
2018-04-18T05:00:59.893Z,9.10
2018-04-18T05:03:26.223Z,9.20
2018-04-18T05:05:52.620Z,9.20
2018-04-18T05:08:18.997Z,9.10
2018-04-18T05:10:45.358Z,9.10
2018-04-18T05:13:11.730Z,9.10
2018-04-18T05:15:38.074Z,9.00
2018-04-18T05:18:04.418Z,9.00
2018-04-18T05:20:30.811Z,9.00
2018-04-18T05:22:58.627Z,9.00
2018-04-18T05:25:25.769Z,9.10
2018-04-18T05:27:52.136Z,9.10
2018-04-18T05:30:18.559Z,9.10
2018-04-18T05:32:45.698Z,9.30
2018-04-18T05:35:12.813Z,9.40
2018-04-18T05:37:39.193Z,9.40
2018-04-18T05:40:05.626Z,9.50
2018-04-18T05:42:33.243Z,9.60
2018-04-18T05:44:59.654Z,9.60
2018-04-18T05:47:26.050Z,9.70
2018-04-18T05:49:53.177Z,9.70
2018-04-18T05:52:19.563Z,9.70
2018-04-18T05:54:45.943Z,9.80
2018-04-18T05:57:13.108Z,10.00
2018-04-18T05:59:39.501Z,9.90
2018-04-18T06:02:05.900Z,10.00
2018-04-18T06:04:32.347Z,10.10
2018-04-18T06:06:58.737Z,10.20
2018-04-18T06:09:25.862Z,10.50
2018-04-18T06:11:52.291Z,10.50
2018-04-18T06:14:18.718Z,10.60
2018-04-18T06:16:45.269Z,10.70
2018-04-18T06:19:12.491Z,10.80
2018-04-18T06:21:38.925Z,10.80
2018-04-18T06:24:05.414Z,10.90
2018-04-18T06:26:32.600Z,11.00
2018-04-18T06:28:59.010Z,11.00
2018-04-18T06:31:25.472Z,11.10
2018-04-18T06:33:51.902Z,11.10
2018-04-18T06:36:18.362Z,11.20
2018-04-18T06:38:44.834Z,11.20
2018-04-18T06:41:12.045Z,11.40
2018-04-18T06:43:38.534Z,11.40
2018-04-18T06:46:04.980Z,11.50
2018-04-18T06:48:31.420Z,11.50
2018-04-18T06:50:57.847Z,11.60
2018-04-18T06:53:24.291Z,11.70
2018-04-18T06:55:50.731Z,11.80
2018-04-18T06:58:17.155Z,11.80
2018-04-18T07:00:43.777Z,11.90
2018-04-18T07:03:10.222Z,12.00
2018-04-18T07:05:36.674Z,12.10
2018-04-18T07:08:03.140Z,12.20
2018-04-18T07:10:29.586Z,12.20
2018-04-18T07:12:56.762Z,12.40
2018-04-18T07:15:23.969Z,12.40
2018-04-18T07:17:50.435Z,12.40
2018-04-18T07:20:18.129Z,12.60
2018-04-18T07:22:44.562Z,12.60
2018-04-18T07:25:11.000Z,12.70
2018-04-18T07:27:37.501Z,12.80
2018-04-18T07:30:04.733Z,13.00
2018-04-18T07:32:31.161Z,12.90
2018-04-18T07:34:57.581Z,13.10
2018-04-18T07:37:24.014Z,13.20
2018-04-18T07:39:50.452Z,13.30
2018-04-18T07:42:17.598Z,13.40
2018-04-18T07:44:44.016Z,13.40
2018-04-18T07:47:10.426Z,13.50
2018-04-18T07:49:36.857Z,13.60
2018-04-18T07:52:03.302Z,13.70
2018-04-18T07:54:29.732Z,13.80
2018-04-18T07:56:56.157Z,13.80
2018-04-18T07:59:22.579Z,13.90
2018-04-18T08:01:49.027Z,14.00
2018-04-18T08:04:15.462Z,14.20
2018-04-18T08:06:41.886Z,14.20
2018-04-18T08:09:08.387Z,14.30
2018-04-18T08:11:35.685Z,14.40
2018-04-18T08:14:09.095Z,14.40
2018-04-18T08:16:35.600Z,14.50
2018-04-18T08:19:02.844Z,14.70
2018-04-18T08:21:29.275Z,14.70
2018-04-18T08:23:56.477Z,14.90
2018-04-18T08:26:22.983Z,14.90
2018-04-18T08:28:49.404Z,15.00
2018-04-18T08:31:15.828Z,15.00
2018-04-18T08:33:42.322Z,15.10
2018-04-18T08:36:08.811Z,15.30
2018-04-18T08:38:36.206Z,15.50
2018-04-18T08:41:02.681Z,15.50
2018-04-18T08:43:30.598Z,15.60
2018-04-18T08:45:57.199Z,15.50
2018-04-18T08:48:24.402Z,15.50
2018-04-18T08:50:50.868Z,15.50
2018-04-18T08:53:18.181Z,15.60
2018-04-18T08:55:44.678Z,15.60
2018-04-18T08:58:11.172Z,15.70
2018-04-18T09:00:37.739Z,15.80
2018-04-18T09:03:04.254Z,15.90
2018-04-18T09:05:30.797Z,15.90
2018-04-18T09:07:57.281Z,16.00
2018-04-18T09:10:23.714Z,16.00
2018-04-18T09:12:50.145Z,16.10
2018-04-18T09:15:16.579Z,16.40
2018-04-18T09:17:42.983Z,16.40
2018-04-18T09:20:10.159Z,16.50
2018-04-18T09:22:36.699Z,16.50
2018-04-18T09:25:03.181Z,16.60
2018-04-18T09:27:30.345Z,16.90
2018-04-18T09:29:56.767Z,16.80
2018-04-18T09:32:23.933Z,17.10
2018-04-18T09:34:50.357Z,17.10
2018-04-18T09:37:16.817Z,17.10
2018-04-18T09:39:43.295Z,17.20
2018-04-18T09:42:09.686Z,17.40
2018-04-18T09:44:36.107Z,17.60
2018-04-18T09:47:02.551Z,17.70
2018-04-18T09:49:28.953Z,17.60
2018-04-18T09:51:55.376Z,17.70
2018-04-18T09:54:22.544Z,18.10
2018-04-18T09:56:48.987Z,18.00
2018-04-18T09:59:15.414Z,18.10
2018-04-18T10:01:41.872Z,18.40
2018-04-18T10:04:09.151Z,18.60
2018-04-18T10:06:35.651Z,18.80
2018-04-18T10:09:02.157Z,18.60
2018-04-18T10:11:28.620Z,18.50
2018-04-18T10:13:55.033Z,18.40
2018-04-18T10:16:22.179Z,18.70
2018-04-18T10:18:49.348Z,18.60
2018-04-18T10:21:15.757Z,18.60
2018-04-18T10:23:42.204Z,18.70
2018-04-18T10:26:08.644Z,19.00
2018-04-18T10:28:35.065Z,19.10
2018-04-18T10:31:01.513Z,19.20
2018-04-18T10:33:27.969Z,19.40
2018-04-18T10:35:54.388Z,19.50
2018-04-18T10:38:20.823Z,19.50
2018-04-18T10:40:47.240Z,19.40
2018-04-18T10:43:13.696Z,19.40
2018-04-18T10:45:40.128Z,19.40
2018-04-18T10:48:06.571Z,19.50
2018-04-18T10:50:32.992Z,19.60
2018-04-18T10:52:59.453Z,19.80
2018-04-18T10:55:25.855Z,20.00
2018-04-18T10:57:52.279Z,20.10
2018-04-18T11:00:18.738Z,20.20
2018-04-18T11:02:45.162Z,20.20
2018-04-18T11:05:11.611Z,20.20
2018-04-18T11:07:38.069Z,20.40
2018-04-18T11:10:04.477Z,20.60
2018-04-18T11:12:30.898Z,20.70
2018-04-18T11:14:57.349Z,20.90
2018-04-18T11:17:23.772Z,21.10
2018-04-18T11:19:50.172Z,21.00
2018-04-18T11:22:16.589Z,20.90
2018-04-18T11:24:43.052Z,20.80
2018-04-18T11:27:09.547Z,20.90
2018-04-18T11:29:35.979Z,21.20
2018-04-18T11:32:02.419Z,21.30
2018-04-18T11:34:29.589Z,21.10
2018-04-18T11:36:56.021Z,21.10
2018-04-18T11:39:23.216Z,21.20
2018-04-18T11:41:49.671Z,21.20
2018-04-18T11:44:16.123Z,21.30
2018-04-18T11:46:42.612Z,21.40
2018-04-18T11:49:09.039Z,21.50
2018-04-18T11:51:35.488Z,21.50
2018-04-18T11:54:01.987Z,21.70
2018-04-18T11:56:28.424Z,21.80
2018-04-18T11:58:54.888Z,21.80
2018-04-18T12:01:21.334Z,22.00
2018-04-18T12:03:47.786Z,22.10
2018-04-18T12:06:14.261Z,22.20
2018-04-18T12:08:40.707Z,22.20
2018-04-18T12:11:07.144Z,22.40
2018-04-18T12:13:33.630Z,22.50
2018-04-18T12:16:00.114Z,22.50
2018-04-18T12:18:26.549Z,22.50
2018-04-18T12:20:53.028Z,22.50
2018-04-18T12:23:19.458Z,22.50
2018-04-18T12:25:45.911Z,22.60
2018-04-18T12:28:12.346Z,22.50
2018-04-18T12:30:39.540Z,22.50
2018-04-18T12:33:05.969Z,22.40
2018-04-18T12:35:32.398Z,22.50
2018-04-18T12:37:58.845Z,22.60
2018-04-18T12:40:25.319Z,22.80
2018-04-18T12:42:51.787Z,22.70
2018-04-18T12:45:18.223Z,22.80
2018-04-18T12:47:44.711Z,23.10
2018-04-18T12:50:11.902Z,23.50
2018-04-18T12:52:38.313Z,23.40
2018-04-18T12:55:04.791Z,23.50
2018-04-18T12:57:31.347Z,23.30
2018-04-18T12:59:57.762Z,23.10
2018-04-18T13:02:24.198Z,23.00
2018-04-18T13:04:50.638Z,23.10
2018-04-18T13:07:17.126Z,23.20
2018-04-18T13:09:43.605Z,23.30
2018-04-18T13:12:10.088Z,23.40
2018-04-18T13:14:37.288Z,23.30
2018-04-18T13:17:03.731Z,23.30
2018-04-18T13:19:30.438Z,23.40
2018-04-18T13:21:56.876Z,23.40
2018-04-18T13:24:23.294Z,23.50
2018-04-18T13:26:50.478Z,23.70
2018-04-18T13:29:16.882Z,23.70
2018-04-18T13:31:43.312Z,23.80
2018-04-18T13:34:09.746Z,23.70
2018-04-18T13:36:36.912Z,23.90
2018-04-18T13:39:03.422Z,23.90
2018-04-18T13:41:30.648Z,23.80
2018-04-18T13:43:57.056Z,23.80
2018-04-18T13:46:23.484Z,23.80
2018-04-18T13:48:49.908Z,23.80
2018-04-18T13:51:16.364Z,23.90
2018-04-18T13:53:42.797Z,24.10
2018-04-18T13:56:09.218Z,24.10
2018-04-18T13:58:35.677Z,24.00
2018-04-18T14:01:02.089Z,24.10
2018-04-18T14:03:28.515Z,24.10
2018-04-18T14:05:54.937Z,24.20
2018-04-18T14:08:21.383Z,24.30
2018-04-18T14:10:47.795Z,24.50
2018-04-18T14:13:14.238Z,24.50
2018-04-18T14:15:40.686Z,24.50
2018-04-18T14:18:07.114Z,24.60
2018-04-18T14:20:33.534Z,24.50
2018-04-18T14:22:59.945Z,24.40
2018-04-18T14:25:27.109Z,24.40
2018-04-18T14:27:54.275Z,24.40
2018-04-18T14:30:20.693Z,24.40
2018-04-18T14:32:47.858Z,24.40
2018-04-18T14:35:14.274Z,24.40
2018-04-18T14:37:40.724Z,24.20
2018-04-18T14:40:07.165Z,24.10
2018-04-18T14:42:33.584Z,24.00
2018-04-18T14:45:00.014Z,23.90
2018-04-18T14:47:26.435Z,23.70
2018-04-18T14:49:53.596Z,23.40
2018-04-18T14:52:20.755Z,23.30
2018-04-18T14:54:47.202Z,23.30
2018-04-18T14:57:13.629Z,23.30
2018-04-18T14:59:40.073Z,23.30
2018-04-18T15:02:06.502Z,23.20
2018-04-18T15:04:32.939Z,23.20
2018-04-18T15:06:59.378Z,23.10
2018-04-18T15:09:25.802Z,23.10
2018-04-18T15:11:52.227Z,23.10
2018-04-18T15:14:18.653Z,23.20
2018-04-18T15:16:45.058Z,23.20
2018-04-18T15:19:11.498Z,23.50
2018-04-18T15:21:37.932Z,23.40
2018-04-18T15:24:05.108Z,23.30
2018-04-18T15:26:31.595Z,23.30
2018-04-18T15:28:58.003Z,23.40
2018-04-18T15:31:24.488Z,23.40
2018-04-18T15:33:50.907Z,23.50
2018-04-18T15:36:17.385Z,23.60
2018-04-18T15:38:43.793Z,23.60
2018-04-18T15:41:10.234Z,23.60
2018-04-18T15:43:37.411Z,23.70
2018-04-18T15:46:03.854Z,23.70
2018-04-18T15:48:30.285Z,23.70
2018-04-18T15:50:56.718Z,23.70
2018-04-18T15:53:23.150Z,23.70
2018-04-18T15:55:49.620Z,23.90
2018-04-18T15:58:16.094Z,23.90
2018-04-18T16:00:42.522Z,24.10
2018-04-18T16:03:09.692Z,24.60
2018-04-18T16:05:36.154Z,24.50
2018-04-18T16:08:02.601Z,24.70
2018-04-18T16:10:29.038Z,24.80
2018-04-18T16:12:55.471Z,24.90
2018-04-18T16:15:21.900Z,25.00
2018-04-18T16:17:48.326Z,25.30
2018-04-18T16:20:14.760Z,25.40
2018-04-18T16:22:41.176Z,25.50
2018-04-18T16:25:07.617Z,25.70
2018-04-18T16:27:34.037Z,26.20
2018-04-18T16:30:00.451Z,26.60
2018-04-18T16:32:26.918Z,27.00
2018-04-18T16:34:53.374Z,27.40
2018-04-18T16:37:19.804Z,27.70
2018-04-18T16:39:46.223Z,28.00
2018-04-18T16:42:19.519Z,28.30
2018-04-18T16:44:45.942Z,28.40
2018-04-18T16:47:12.368Z,28.40
2018-04-18T16:49:38.791Z,28.40
2018-04-18T16:52:05.205Z,28.50
2018-04-18T16:54:31.629Z,28.40
2018-04-18T16:56:58.813Z,28.10
2018-04-18T16:59:25.252Z,28.10
2018-04-18T17:01:51.696Z,28.00
2018-04-18T17:04:18.114Z,27.90
2018-04-18T17:06:44.591Z,27.90
2018-04-18T17:09:10.990Z,27.90
2018-04-18T17:11:37.412Z,27.90
2018-04-18T17:14:03.892Z,27.90
2018-04-18T17:16:30.318Z,27.80
2018-04-18T17:18:56.745Z,27.70
2018-04-18T17:21:23.148Z,27.60
2018-04-18T17:23:49.588Z,27.40
2018-04-18T17:26:16.009Z,27.20
2018-04-18T17:28:42.424Z,26.90
2018-04-18T17:31:09.668Z,26.20
2018-04-18T17:33:36.848Z,25.90
2018-04-18T17:36:03.314Z,25.90
2018-04-18T17:38:29.781Z,25.60
2018-04-18T17:40:56.978Z,25.00
2018-04-18T17:43:23.402Z,24.90
2018-04-18T17:45:49.838Z,24.70
2018-04-18T17:48:16.244Z,24.30
2018-04-18T17:50:43.404Z,23.60
2018-04-18T17:53:10.584Z,23.30
2018-04-18T17:55:37.073Z,23.30
2018-04-18T17:58:04.241Z,22.80
2018-04-18T18:00:30.713Z,22.70
2018-04-18T18:02:57.147Z,22.50
2018-04-18T18:05:23.562Z,22.30
2018-04-18T18:07:49.998Z,22.10
2018-04-18T18:10:16.424Z,21.90
2018-04-18T18:12:42.868Z,21.80
2018-04-18T18:15:09.300Z,21.60
2018-04-18T18:17:35.735Z,21.50
2018-04-18T18:20:02.248Z,21.50
2018-04-18T18:22:28.677Z,21.40
2018-04-18T18:24:55.903Z,21.20
2018-04-18T18:27:23.111Z,21.20
2018-04-18T18:29:49.575Z,21.20
2018-04-18T18:32:16.034Z,21.10
2018-04-18T18:34:43.190Z,20.80
2018-04-18T18:37:10.369Z,20.70
2018-04-18T18:39:36.783Z,20.70
2018-04-18T18:42:03.216Z,20.60
2018-04-18T18:44:29.642Z,20.50
2018-04-18T18:46:56.826Z,20.30
2018-04-18T18:49:23.242Z,20.30
2018-04-18T18:51:49.670Z,20.20
2018-04-18T18:54:16.135Z,20.20
2018-04-18T18:56:42.559Z,20.00
2018-04-18T18:59:08.996Z,20.00
2018-04-18T19:01:35.417Z,19.80
2018-04-18T19:04:01.841Z,19.70
2018-04-18T19:06:28.249Z,19.50
2018-04-18T19:08:54.692Z,19.40
2018-04-18T19:11:21.861Z,19.00
2018-04-18T19:13:48.301Z,19.00
2018-04-18T19:16:14.755Z,18.80
2018-04-18T19:18:41.196Z,18.70
2018-04-18T19:21:07.646Z,18.60
2018-04-18T19:23:34.053Z,18.40
2018-04-18T19:26:00.490Z,18.30
2018-04-18T19:28:26.993Z,18.10
2018-04-18T19:30:53.357Z,18.00
2018-04-18T19:33:19.794Z,17.90
2018-04-18T19:35:46.203Z,17.70
2018-04-18T19:38:12.641Z,17.60
2018-04-18T19:40:39.059Z,17.40
2018-04-18T19:43:05.515Z,17.40
2018-04-18T19:45:31.951Z,17.20
2018-04-18T19:47:58.429Z,17.10
2018-04-18T19:50:24.966Z,17.00
2018-04-18T19:52:51.487Z,16.90
2018-04-18T19:55:17.991Z,16.80
2018-04-18T19:57:44.489Z,16.70
2018-04-18T20:00:12.459Z,16.60
2018-04-18T20:02:39.691Z,16.50
2018-04-18T20:05:06.200Z,16.50
2018-04-18T20:07:32.695Z,16.40
2018-04-18T20:09:59.175Z,16.40
2018-04-18T20:12:25.697Z,16.30
2018-04-18T20:14:52.163Z,16.30
2018-04-18T20:17:18.675Z,16.20
2018-04-18T20:19:45.179Z,16.20
2018-04-18T20:22:11.671Z,16.20
2018-04-18T20:24:38.169Z,16.10
2018-04-18T20:27:04.742Z,16.00
2018-04-18T20:29:31.183Z,15.90
2018-04-18T20:31:57.665Z,15.90
2018-04-18T20:34:24.178Z,15.90
2018-04-18T20:36:50.724Z,15.80
2018-04-18T20:39:17.315Z,15.80
2018-04-18T20:41:53.733Z,15.70
2018-04-18T20:44:20.198Z,15.70
2018-04-18T20:46:46.630Z,15.60
2018-04-18T20:49:13.164Z,15.50
2018-04-18T20:51:39.649Z,15.50
2018-04-18T20:54:06.875Z,15.40
2018-04-18T20:56:33.381Z,15.40
2018-04-18T20:58:59.871Z,15.40
2018-04-18T21:01:27.125Z,15.30
2018-04-18T21:03:53.628Z,15.20
2018-04-18T21:06:20.093Z,15.20
2018-04-18T21:08:47.344Z,15.20
2018-04-18T21:11:14.559Z,15.10
2018-04-18T21:13:42.252Z,15.10
2018-04-18T21:16:09.495Z,15.00
2018-04-18T21:18:35.982Z,15.00
2018-04-18T21:21:02.490Z,15.00
2018-04-18T21:23:28.981Z,15.00
2018-04-18T21:25:55.443Z,14.90
2018-04-18T21:28:22.697Z,14.80
2018-04-18T21:30:49.902Z,14.80
2018-04-18T21:33:16.367Z,14.70
2018-04-18T21:35:42.895Z,14.70
2018-04-18T21:38:09.376Z,14.70
2018-04-18T21:40:35.830Z,14.60
2018-04-18T21:43:02.369Z,14.60
2018-04-18T21:45:28.874Z,14.50
2018-04-18T21:47:55.381Z,14.50
2018-04-18T21:50:21.869Z,14.50
2018-04-18T21:52:49.499Z,14.40
2018-04-18T21:55:16.744Z,14.40
2018-04-18T21:57:43.989Z,14.30
2018-04-18T22:00:11.207Z,14.30
2018-04-18T22:02:37.670Z,14.30
2018-04-18T22:05:04.871Z,14.20
2018-04-18T22:07:31.316Z,14.20
2018-04-18T22:09:57.939Z,14.10
2018-04-18T22:12:24.401Z,14.00
2018-04-18T22:14:50.862Z,14.00
2018-04-18T22:17:18.071Z,13.90
2018-04-18T22:19:44.576Z,13.90
2018-04-18T22:22:11.077Z,13.90
2018-04-18T22:24:37.632Z,13.80
2018-04-18T22:27:04.195Z,13.80
2018-04-18T22:29:30.671Z,13.80
2018-04-18T22:31:57.221Z,13.70
2018-04-18T22:34:23.681Z,13.70
2018-04-18T22:36:50.890Z,13.80
2018-04-18T22:39:17.385Z,13.80
2018-04-18T22:41:43.876Z,13.80
2018-04-18T22:44:10.355Z,13.70
2018-04-18T22:46:36.819Z,13.70
2018-04-18T22:49:03.293Z,13.70
2018-04-18T22:51:29.757Z,13.70
2018-04-18T22:53:56.991Z,13.70
2018-04-18T22:56:23.492Z,13.70
2018-04-18T22:58:49.971Z,13.70
2018-04-18T23:01:17.067Z,13.70
2018-04-18T23:03:43.530Z,13.70
2018-04-18T23:06:10.021Z,13.70
2018-04-18T23:08:36.544Z,13.70
2018-04-18T23:11:03.050Z,13.80
2018-04-18T23:13:29.488Z,13.80
2018-04-18T23:15:56.703Z,13.90
2018-04-18T23:18:23.190Z,13.90
2018-04-18T23:20:49.634Z,13.90
2018-04-18T23:23:16.085Z,13.90
2018-04-18T23:25:42.610Z,13.90
2018-04-18T23:28:09.114Z,13.90
2018-04-18T23:30:35.535Z,14.00
2018-04-18T23:33:02.752Z,14.00
2018-04-18T23:35:29.256Z,14.00
2018-04-18T23:37:55.728Z,13.90
2018-04-18T23:40:22.167Z,13.80
2018-04-18T23:42:48.630Z,13.70
2018-04-18T23:45:15.858Z,13.60
2018-04-18T23:47:42.314Z,13.60
2018-04-18T23:50:09.567Z,13.50
2018-04-18T23:52:36.005Z,13.50
2018-04-18T23:55:03.293Z,13.50
2018-04-18T23:57:29.867Z,13.40
2018-04-18T23:59:56.362Z,13.40
